Time;durP1;ratioP1;P1;durP2;ratioP2;P2;SDS_P1;SDS_P2;PMS_P1;PMS_P2;Temp;Humidity;BMP_temperature;BMP_pressure;BME280_temperature;BME280_humidity;BME280_pressure;Samples;Min_cycle;Max_cycle;Signal;HPM_P1;HPM_P2
2023/03/05 00:01:36;;;;;;;12.57;6.80;;;;;;;2.81;100.00;99747.28;5074721;28;20459;-58
2023/03/05 00:04:02;;;;;;;14.90;6.22;;;;;;;2.81;100.00;99749.94;5079802;28;20039;-58
2023/03/05 00:06:28;;;;;;;14.15;6.35;;;;;;;2.74;100.00;99749.00;5078451;28;20286;-60
2023/03/05 00:08:55;;;;;;;13.23;6.13;;;;;;;2.78;100.00;99750.31;5074924;28;20058;-59
2023/03/05 00:11:21;;;;;;;16.38;7.13;;;;;;;2.74;100.00;99756.94;5063353;28;20276;-59
2023/03/05 00:13:46;;;;;;;12.50;5.72;;;;;;;2.73;100.00;99741.25;5038493;28;20112;-60
2023/03/05 00:16:13;;;;;;;13.25;6.40;;;;;;;2.67;100.00;99748.09;5081003;28;20036;-60
2023/03/05 00:18:39;;;;;;;11.73;5.50;;;;;;;2.68;100.00;99749.72;5085193;28;20059;-60
2023/03/05 00:21:12;;;;;;;12.65;5.05;;;;;;;2.64;100.00;99748.44;5083426;28;20047;-60
2023/03/05 00:23:38;;;;;;;10.20;5.07;;;;;;;2.65;100.00;99755.41;5057278;28;20020;-60
2023/03/05 00:26:06;;;;;;;13.68;4.72;;;;;;;2.63;100.00;99745.97;5089820;28;20028;-60
2023/03/05 00:28:31;;;;;;;17.02;4.60;;;;;;;2.60;100.00;99752.47;5067421;28;20059;-60
2023/03/05 00:31:00;;;;;;;12.10;5.50;;;;;;;2.56;100.00;99751.16;5080566;28;20016;-60
2023/03/05 00:33:25;;;;;;;15.35;5.28;;;;;;;2.63;100.00;99749.44;5079634;28;20023;-60
2023/03/05 00:35:50;;;;;;;9.40;4.90;;;;;;;2.57;100.00;99742.19;5073699;28;20017;-60
2023/03/05 00:38:16;;;;;;;11.55;4.90;;;;;;;2.60;100.00;99741.88;5081674;28;20028;-60
2023/03/05 00:40:41;;;;;;;10.93;4.97;;;;;;;2.58;100.00;99738.56;5058335;28;20032;-61
2023/03/05 00:43:07;;;;;;;14.73;4.50;;;;;;;2.56;100.00;99736.09;5083809;28;20481;-60
2023/03/05 00:45:32;;;;;;;12.20;4.72;;;;;;;2.56;100.00;99733.44;5054856;28;20024;-60
2023/03/05 00:47:58;;;;;;;14.20;5.22;;;;;;;2.51;100.00;99724.41;5075174;28;20021;-59
2023/03/05 00:50:25;;;;;;;10.68;4.90;;;;;;;2.47;100.00;99731.03;5038641;28;20024;-60
2023/03/05 00:52:50;;;;;;;12.27;5.03;;;;;;;2.53;100.00;99725.06;5079153;28;20070;-59
2023/03/05 00:55:16;;;;;;;10.88;4.82;;;;;;;2.46;100.00;99726.75;5088328;28;20028;-59
2023/03/05 00:57:41;;;;;;;15.15;5.00;;;;;;;2.51;100.00;99722.56;5090159;28;20036;-59
2023/03/05 01:00:09;;;;;;;18.08;5.50;;;;;;;2.48;100.00;99720.28;5081363;28;20036;-59
2023/03/05 01:02:34;;;;;;;11.52;4.80;;;;;;;2.49;100.00;99726.41;5073281;28;20025;-59
2023/03/05 01:05:00;;;;;;;12.88;4.90;;;;;;;2.50;100.00;99722.78;5080619;28;20094;-59
2023/03/05 01:07:25;;;;;;;17.75;5.65;;;;;;;2.46;100.00;99713.53;5085192;28;20402;-59
2023/03/05 01:09:51;;;;;;;14.48;5.25;;;;;;;2.46;100.00;99716.19;5079502;28;20085;-59
2023/03/05 01:12:16;;;;;;;15.32;5.47;;;;;;;2.45;100.00;99709.25;5083398;28;20077;-59
2023/03/05 01:14:42;;;;;;;16.90;5.65;;;;;;;2.46;100.00;99708.25;5069773;28;20028;-59
2023/03/05 01:17:07;;;;;;;16.63;5.53;;;;;;;2.42;100.00;99706.94;5077131;28;20025;-59
2023/03/05 01:19:32;;;;;;;16.40;5.47;;;;;;;2.41;100.00;99702.66;5075702;28;20363;-59
2023/03/05 01:21:58;;;;;;;12.38;5.00;;;;;;;2.37;100.00;99708.31;5080676;28;20209;-59
2023/03/05 01:24:24;;;;;;;17.30;5.30;;;;;;;2.41;100.00;99705.31;5076463;28;20024;-59
2023/03/05 01:26:49;;;;;;;12.85;4.75;;;;;;;2.36;100.00;99697.91;5085903;28;20023;-60
2023/03/05 01:29:15;;;;;;;16.35;4.88;;;;;;;2.42;100.00;99699.00;5080612;28;20032;-59
2023/03/05 01:31:40;;;;;;;11.60;4.47;;;;;;;2.36;100.00;99698.72;5076966;28;20544;-59
2023/03/05 01:34:06;;;;;;;13.10;4.25;;;;;;;2.28;100.00;99685.56;5058134;28;20028;-59
2023/03/05 01:36:31;;;;;;;13.13;4.53;;;;;;;2.26;100.00;99682.28;5076725;28;20052;-59
2023/03/05 01:38:57;;;;;;;18.70;4.82;;;;;;;2.25;100.00;99691.22;5079632;28;20036;-59
2023/03/05 01:41:22;;;;;;;14.40;4.78;;;;;;;2.21;100.00;99681.97;5060210;28;20394;-59
2023/03/05 01:43:48;;;;;;;10.88;4.03;;;;;;;2.26;100.00;99684.91;5082373;28;20383;-59
2023/03/05 01:46:28;;;;;;;14.65;4.45;;;;;;;2.25;100.00;99680.63;5078745;28;20489;-59
2023/03/05 01:49:07;;;;;;;15.18;4.28;;;;;;;2.19;100.00;99681.31;5082555;28;20044;-59
2023/03/05 01:51:36;;;;;;;10.10;4.13;;;;;;;2.19;100.00;99672.56;5078620;28;20028;-59
2023/03/05 01:54:02;;;;;;;11.90;4.15;;;;;;;2.20;100.00;99675.06;5079606;28;20021;-59
2023/03/05 01:56:27;;;;;;;15.23;4.70;;;;;;;2.22;100.00;99669.56;5046170;28;20029;-59
2023/03/05 01:58:53;;;;;;;14.07;5.03;;;;;;;2.17;100.00;99664.81;5081775;28;20450;-59
2023/03/05 02:01:18;;;;;;;10.18;4.43;;;;;;;2.21;100.00;99665.28;5062281;28;20489;-59
2023/03/05 02:03:44;;;;;;;13.93;5.38;;;;;;;2.12;100.00;99660.06;5078262;28;20024;-59
2023/03/05 02:06:09;;;;;;;14.68;5.63;;;;;;;2.20;100.00;99661.84;5063937;28;20318;-59
2023/03/05 02:08:35;;;;;;;15.85;5.45;;;;;;;2.19;100.00;99654.88;5084305;28;20028;-59
2023/03/05 02:11:01;;;;;;;13.77;5.03;;;;;;;2.12;100.00;99651.28;5075205;28;20037;-59
2023/03/05 02:13:28;;;;;;;15.77;5.30;;;;;;;2.12;100.00;99653.94;5087691;28;20409;-59
2023/03/05 02:15:54;;;;;;;18.95;5.68;;;;;;;2.15;100.00;99654.44;5083606;28;20028;-59
2023/03/05 02:18:20;;;;;;;17.65;6.18;;;;;;;2.17;100.00;99648.94;5086498;28;20092;-59
2023/03/05 02:20:55;;;;;;;17.13;6.53;;;;;;;2.08;100.00;99652.66;5084390;28;20467;-59
2023/03/05 02:23:21;;;;;;;23.33;6.80;;;;;;;2.08;100.00;99648.19;5083152;28;20361;-59
2023/03/05 02:25:47;;;;;;;16.13;6.10;;;;;;;2.13;100.00;99650.31;5064644;28;20032;-59
2023/03/05 02:28:39;;;;;;;19.30;7.28;;;;;;;2.04;100.00;99646.91;5086155;28;20058;-59
2023/03/05 02:31:23;;;;;;;18.55;4.93;;;;;;;2.10;100.00;99646.19;5082600;28;20445;-59
2023/03/05 02:33:48;;;;;;;14.13;4.53;;;;;;;2.09;100.00;99638.44;5077039;28;20191;-59
2023/03/05 02:36:14;;;;;;;21.27;5.57;;;;;;;2.05;100.00;99631.88;5083733;28;20063;-59
2023/03/05 02:38:40;;;;;;;16.38;5.28;;;;;;;2.00;100.00;99629.75;5084220;28;20612;-59
2023/03/05 02:41:05;;;;;;;15.65;5.03;;;;;;;2.00;100.00;99629.75;5084761;28;20337;-59
2023/03/05 02:43:31;;;;;;;12.38;4.80;;;;;;;1.99;100.00;99633.38;5083826;28;20031;-59
2023/03/05 02:45:56;;;;;;;14.00;4.80;;;;;;;2.02;100.00;99626.91;5085658;28;20028;-59
2023/03/05 02:48:21;;;;;;;13.27;4.68;;;;;;;2.01;100.00;99626.09;5078939;28;20020;-59
2023/03/05 02:50:47;;;;;;;18.20;4.47;;;;;;;2.03;100.00;99625.94;5086793;28;20351;-59
2023/03/05 02:53:13;;;;;;;10.35;4.57;;;;;;;1.98;100.00;99625.66;5057434;28;20526;-59
2023/03/05 02:55:38;;;;;;;8.55;4.05;;;;;;;1.91;100.00;99626.34;5083211;28;20038;-59
2023/03/05 02:58:03;;;;;;;10.93;4.22;;;;;;;1.88;100.00;99621.41;5085251;28;20397;-59
2023/03/05 03:00:29;;;;;;;15.75;4.93;;;;;;;1.85;100.00;99621.78;5089516;28;20027;-59
2023/03/05 03:02:54;;;;;;;13.68;4.40;;;;;;;1.88;100.00;99621.41;5071330;28;20060;-59
2023/03/05 03:05:20;;;;;;;11.43;4.20;;;;;;;1.93;100.00;99620.88;5090705;28;20054;-59
2023/03/05 03:07:45;;;;;;;15.80;5.18;;;;;;;1.87;100.00;99609.19;5080342;28;20031;-59
2023/03/05 03:10:11;;;;;;;15.68;5.03;;;;;;;1.80;100.00;99605.63;5087343;28;20394;-60
2023/03/05 03:12:40;;;;;;;17.05;4.72;;;;;;;1.84;100.00;99608.72;5079070;28;20516;-59
2023/03/05 03:15:06;;;;;;;13.07;4.90;;;;;;;1.83;100.00;99607.91;5081997;28;20040;-59
2023/03/05 03:17:33;;;;;;;16.70;5.53;;;;;;;1.83;100.00;99602.63;5072669;28;20031;-59
2023/03/05 03:19:59;;;;;;;15.05;4.63;;;;;;;1.81;100.00;99603.78;5079509;28;20024;-59
2023/03/05 03:22:25;;;;;;;12.55;3.88;;;;;;;1.79;100.00;99606.59;5079560;28;20096;-59
2023/03/05 03:24:50;;;;;;;14.68;3.20;;;;;;;1.76;100.00;99598.22;5084718;28;20024;-59
2023/03/05 03:27:16;;;;;;;19.77;3.70;;;;;;;1.79;100.00;99600.50;5084960;28;20138;-59
2023/03/05 03:29:41;;;;;;;7.82;2.85;;;;;;;1.82;100.00;99600.97;5055193;28;20033;-59
2023/03/05 03:32:07;;;;;;;10.10;2.67;;;;;;;1.82;100.00;99600.97;5079296;28;20020;-59
2023/03/05 03:34:32;;;;;;;8.32;2.70;;;;;;;1.77;100.00;99600.66;5077293;28;20086;-59
2023/03/05 03:36:58;;;;;;;11.50;2.97;;;;;;;1.77;100.00;99594.56;5092278;28;20028;-59
2023/03/05 03:39:24;;;;;;;8.38;2.97;;;;;;;1.80;99.15;99596.84;5070604;28;20032;-59
2023/03/05 03:41:50;;;;;;;10.82;2.42;;;;;;;1.73;99.39;99594.09;5080402;28;20111;-59
2023/03/05 03:44:17;;;;;;;6.57;2.30;;;;;;;1.78;99.71;99598.88;5089121;28;20032;-59
2023/03/05 03:46:43;;;;;;;10.35;2.50;;;;;;;1.78;100.00;99591.75;5060811;28;20028;-59
2023/03/05 03:49:18;;;;;;;13.65;2.60;;;;;;;1.81;100.00;99594.03;5061486;28;20100;-59
2023/03/05 03:51:44;;;;;;;7.82;2.08;;;;;;;1.75;97.73;99599.19;5063130;28;20033;-59
2023/03/05 03:54:10;;;;;;;9.40;2.45;;;;;;;1.75;99.68;99594.75;5083416;28;20081;-59
2023/03/05 03:56:35;;;;;;;4.60;1.95;;;;;;;1.78;99.32;99589.09;5095788;28;20066;-59
2023/03/05 03:59:00;;;;;;;9.40;2.08;;;;;;;1.72;98.30;99600.38;5074520;28;20033;-59
2023/03/05 04:01:26;;;;;;;8.57;2.22;;;;;;;1.67;98.04;99590.34;5087659;28;20035;-59
2023/03/05 04:03:51;;;;;;;5.40;2.03;;;;;;;1.65;97.76;99581.78;5082358;28;20037;-59
2023/03/05 04:06:17;;;;;;;4.82;2.15;;;;;;;1.70;97.48;99587.34;5083689;28;20039;-59
2023/03/05 04:08:42;;;;;;;5.35;2.25;;;;;;;1.62;96.79;99582.13;5080110;28;20039;-59
2023/03/05 04:11:08;;;;;;;9.43;2.42;;;;;;;1.64;96.39;99584.56;5059085;28;20111;-59
2023/03/05 04:13:33;;;;;;;4.20;1.80;;;;;;;1.67;97.34;99576.28;5079369;28;20024;-59
2023/03/05 04:15:59;;;;;;;3.60;1.70;;;;;;;1.59;96.54;99579.81;5082613;28;20451;-59
2023/03/05 04:18:24;;;;;;;9.13;2.20;;;;;;;1.58;96.03;99574.72;5079749;28;20084;-59
2023/03/05 04:20:49;;;;;;;4.15;2.15;;;;;;;1.60;95.31;99570.06;5074342;28;20466;-59
2023/03/05 04:23:15;;;;;;;8.95;2.10;;;;;;;1.61;94.43;99566.44;5075646;28;20024;-59
2023/03/05 04:25:40;;;;;;;7.65;2.22;;;;;;;1.57;94.75;99573.06;5087071;28;20032;-59
2023/03/05 04:28:06;;;;;;;5.28;2.10;;;;;;;1.60;94.83;99562.13;5065231;28;20505;-59
2023/03/05 04:30:31;;;;;;;4.47;1.88;;;;;;;1.58;94.37;99564.16;5088089;28;20039;-59
2023/03/05 04:32:57;;;;;;;5.13;2.10;;;;;;;1.59;93.90;99566.59;5069504;28;20036;-59
2023/03/05 04:35:22;;;;;;;4.82;2.03;;;;;;;1.56;93.71;99564.31;5081581;28;20477;-59
2023/03/05 04:37:48;;;;;;;3.20;1.80;;;;;;;1.61;93.25;99561.97;5080199;28;20028;-59
2023/03/05 04:40:16;;;;;;;6.50;2.20;;;;;;;1.64;92.36;99556.34;5087346;28;20032;-59
2023/03/05 04:42:42;;;;;;;4.25;2.00;;;;;;;1.61;92.46;99555.88;5074114;28;20064;-59
2023/03/05 04:45:07;;;;;;;6.82;2.20;;;;;;;1.58;91.87;99545.66;5081169;28;20031;-59
2023/03/05 04:47:33;;;;;;;5.50;2.15;;;;;;;1.57;91.75;99549.28;5086157;28;20446;-59
2023/03/05 04:49:58;;;;;;;4.63;1.85;;;;;;;1.62;92.63;99541.66;5069099;28;20093;-59
2023/03/05 04:52:24;;;;;;;5.78;2.05;;;;;;;1.63;92.79;99540.66;5083059;28;20024;-59
2023/03/05 04:54:49;;;;;;;7.43;1.90;;;;;;;1.57;92.30;99530.78;5078106;28;20119;-59
2023/03/05 04:57:15;;;;;;;4.43;1.80;;;;;;;1.58;92.00;99532.47;5088936;28;20518;-59
2023/03/05 04:59:40;;;;;;;10.13;2.30;;;;;;;1.59;90.95;99531.44;5080290;28;20028;-59
2023/03/05 05:02:06;;;;;;;5.63;2.10;;;;;;;1.57;90.45;99525.50;5078546;28;20106;-59
2023/03/05 05:04:31;;;;;;;7.40;2.20;;;;;;;1.56;90.11;99522.06;5082260;28;20039;-59
2023/03/05 05:06:57;;;;;;;5.80;2.13;;;;;;;1.56;90.10;99531.81;5086281;28;20043;-58
2023/03/05 05:09:23;;;;;;;5.28;2.17;;;;;;;1.56;89.43;99522.06;5079612;28;20031;-59
2023/03/05 05:11:48;;;;;;;10.30;2.90;;;;;;;1.54;89.86;99517.94;5090815;28;20058;-59
2023/03/05 05:14:13;;;;;;;5.75;2.58;;;;;;;1.51;89.26;99519.94;5090618;28;20028;-59
2023/03/05 05:16:39;;;;;;;7.43;2.40;;;;;;;1.53;89.15;99521.59;5083982;28;20028;-58
2023/03/05 05:19:04;;;;;;;5.47;2.45;;;;;;;1.53;89.30;99516.31;5088749;28;20035;-59
2023/03/05 05:21:30;;;;;;;8.57;2.72;;;;;;;1.54;89.12;99515.31;5083394;28;20401;-59
2023/03/05 05:23:55;;;;;;;6.55;2.90;;;;;;;1.52;88.27;99510.19;5081999;28;20024;-59
2023/03/05 05:26:21;;;;;;;9.27;4.28;;;;;;;1.57;86.68;99513.13;5089283;28;20474;-59
2023/03/05 05:28:46;;;;;;;8.10;4.18;;;;;;;1.57;86.48;99501.72;5090523;28;20062;-59
2023/03/05 05:31:13;;;;;;;7.30;3.95;;;;;;;1.58;84.85;99508.69;5088786;28;20032;-59
2023/03/05 05:33:39;;;;;;;10.20;4.30;;;;;;;1.64;85.02;99507.94;5081002;28;20031;-59
2023/03/05 05:36:05;;;;;;;12.02;3.80;;;;;;;1.75;84.66;99504.06;5080943;28;20135;-58
2023/03/05 05:38:31;;;;;;;10.13;3.97;;;;;;;1.69;85.24;99510.88;5082611;28;20023;-58
2023/03/05 05:41:10;;;;;;;8.60;2.92;;;;;;;1.68;87.51;99503.97;5065955;28;20493;-58
2023/03/05 05:43:36;;;;;;;7.22;2.92;;;;;;;1.65;87.93;99505.16;5089380;28;20027;-59
2023/03/05 05:46:05;;;;;;;8.00;3.47;;;;;;;1.64;88.51;99503.47;5094948;28;20103;-59
2023/03/05 05:48:32;;;;;;;9.80;3.58;;;;;;;1.61;87.90;99497.75;5083989;28;20103;-59
2023/03/05 05:50:57;;;;;;;7.72;3.88;;;;;;;1.56;87.36;99500.09;5087003;28;20047;-59
2023/03/05 05:53:23;;;;;;;20.13;10.88;;;;;;;1.56;87.17;99500.91;5088706;28;20027;-59
2023/03/05 05:55:48;;;;;;;16.55;8.18;;;;;;;1.54;87.09;99499.44;5088341;28;20477;-59
2023/03/05 05:58:14;;;;;;;12.35;5.50;;;;;;;1.56;87.07;99505.38;5091186;28;20081;-59
2023/03/05 06:00:39;;;;;;;9.73;4.93;;;;;;;1.55;86.56;99503.72;5085905;28;20028;-59
2023/03/05 06:03:05;;;;;;;9.65;4.32;;;;;;;1.38;90.18;99503.88;5080017;28;20028;-59
2023/03/05 06:05:30;;;;;;;31.20;16.15;;;;;;;1.35;90.22;99504.22;5077382;28;20515;-59
2023/03/05 06:07:56;;;;;;;15.20;8.27;;;;;;;1.32;90.42;99504.56;5080677;28;20063;-58
2023/03/05 06:10:21;;;;;;;9.93;4.53;;;;;;;1.37;90.94;99496.91;5071340;28;20370;-59
2023/03/05 06:12:46;;;;;;;13.98;7.43;;;;;;;1.35;91.34;99509.50;5085826;28;20052;-59
2023/03/05 06:15:12;;;;;;;13.43;6.65;;;;;;;1.33;91.90;99514.13;5088297;28;20024;-59
2023/03/05 06:17:37;;;;;;;11.65;4.90;;;;;;;1.34;92.48;99513.13;5086897;28;20024;-59
2023/03/05 06:20:04;;;;;;;10.85;3.90;;;;;;;1.29;92.50;99508.38;5086042;28;20023;-59
2023/03/05 06:22:29;;;;;;;13.30;4.75;;;;;;;1.32;93.44;99514.28;5087673;28;20627;-59
2023/03/05 06:24:54;;;;;;;8.60;4.25;;;;;;;1.29;94.62;99513.66;5085111;28;20031;-59
2023/03/05 06:27:20;;;;;;;10.93;5.10;;;;;;;1.28;94.16;99519.13;5082473;28;20031;-58
2023/03/05 06:29:45;;;;;;;10.00;5.18;;;;;;;1.30;94.47;99519.78;5087254;28;20048;-58
2023/03/05 06:32:11;;;;;;;11.80;6.18;;;;;;;1.25;93.90;99514.19;5062871;28;20036;-58
2023/03/05 06:34:36;;;;;;;10.52;4.68;;;;;;;1.29;93.95;99518.13;5084050;28;20032;-58
2023/03/05 06:37:04;;;;;;;11.40;5.10;;;;;;;1.24;94.23;99513.34;5084706;28;20631;-58
2023/03/05 06:39:30;;;;;;;8.52;4.28;;;;;;;1.20;94.91;99511.22;5085321;28;20044;-58
2023/03/05 06:41:55;;;;;;;8.45;4.35;;;;;;;1.20;94.68;99512.06;5082545;28;20040;-58
2023/03/05 06:44:21;;;;;;;12.55;6.00;;;;;;;1.24;95.19;99507.25;5064596;28;20027;-59
2023/03/05 06:46:46;;;;;;;9.68;5.40;;;;;;;1.33;95.62;99510.69;5090040;28;20439;-59
2023/03/05 06:49:12;;;;;;;10.88;5.95;;;;;;;1.26;94.92;99508.72;5089569;28;20029;-59
2023/03/05 06:51:38;;;;;;;11.88;4.38;;;;;;;1.23;94.97;99505.63;5095437;28;20038;-58
2023/03/05 06:54:08;;;;;;;10.98;5.97;;;;;;;1.25;95.64;99509.72;5081048;28;20435;-59
2023/03/05 06:56:34;;;;;;;12.60;5.80;;;;;;;1.27;95.42;99517.47;5080756;28;20096;-59
2023/03/05 06:59:00;;;;;;;15.55;4.88;;;;;;;1.25;95.43;99517.66;5053257;28;20561;-59
2023/03/05 07:01:25;;;;;;;13.32;5.53;;;;;;;1.32;95.88;99519.59;5070296;28;20032;-59
2023/03/05 07:03:52;;;;;;;16.20;6.00;;;;;;;1.25;96.23;99522.13;5072060;28;20035;-59
2023/03/05 07:06:17;;;;;;;13.38;6.32;;;;;;;1.26;96.89;99521.09;5084988;28;20039;-59
2023/03/05 07:08:45;;;;;;;10.65;4.65;;;;;;;1.27;97.16;99518.31;5082573;28;20023;-59
2023/03/05 07:11:15;;;;;;;9.82;4.38;;;;;;;1.27;97.54;99512.19;5074690;28;20048;-59
2023/03/05 07:13:46;;;;;;;11.25;5.20;;;;;;;1.28;97.86;99508.56;5081424;28;20032;-59
2023/03/05 07:16:13;;;;;;;12.63;6.43;;;;;;;1.30;98.13;99506.56;5079272;28;20036;-59
2023/03/05 07:18:39;;;;;;;12.73;6.10;;;;;;;1.26;97.97;99510.53;5078844;28;20466;-59
2023/03/05 07:21:05;;;;;;;10.13;4.78;;;;;;;1.26;98.04;99505.25;5077759;28;20027;-60
2023/03/05 07:23:31;;;;;;;16.55;6.10;;;;;;;1.34;98.41;99496.47;5079558;28;20127;-59
2023/03/05 07:25:56;;;;;;;13.90;7.05;;;;;;;1.27;99.11;99496.34;5083574;28;20111;-59
2023/03/05 07:28:22;;;;;;;11.32;5.32;;;;;;;1.34;98.63;99505.19;5080211;28;20385;-60
2023/03/05 07:30:58;;;;;;;9.80;4.43;;;;;;;1.38;98.64;99503.88;5075756;28;20032;-59
2023/03/05 07:33:24;;;;;;;13.43;6.15;;;;;;;1.38;98.83;99506.50;5076293;28;20105;-59
2023/03/05 07:35:50;;;;;;;14.90;6.57;;;;;;;1.45;99.94;99502.16;5080771;28;20103;-59
2023/03/05 07:38:15;;;;;;;8.27;4.07;;;;;;;1.34;99.34;99502.56;5078996;28;20021;-59
2023/03/05 07:40:40;;;;;;;12.55;7.03;;;;;;;1.37;100.00;99496.09;5064642;28;20032;-59
2023/03/05 07:43:06;;;;;;;7.35;3.78;;;;;;;1.36;99.40;99500.56;5082096;28;20028;-59
2023/03/05 07:45:31;;;;;;;9.75;4.53;;;;;;;1.38;99.67;99501.22;5080712;28;20382;-59
2023/03/05 07:47:57;;;;;;;10.75;4.00;;;;;;;1.44;99.72;99497.84;5062222;28;20097;-59
2023/03/05 07:50:23;;;;;;;10.23;4.97;;;;;;;1.45;99.75;99502.16;5081427;28;20429;-59
2023/03/05 07:52:48;;;;;;;9.65;4.75;;;;;;;1.54;100.00;99500.25;5059760;28;20013;-59
2023/03/05 07:55:13;;;;;;;13.10;4.43;;;;;;;1.47;100.00;99502.81;5082441;28;20036;-59
2023/03/05 07:57:39;;;;;;;10.82;4.70;;;;;;;1.45;100.00;99507.44;5066431;28;20448;-59
2023/03/05 08:00:06;;;;;;;10.20;4.03;;;;;;;1.43;100.00;99498.06;5085436;28;20028;-59
2023/03/05 08:02:31;;;;;;;11.05;4.45;;;;;;;1.46;100.00;99501.16;5080612;28;20036;-59
2023/03/05 08:04:56;;;;;;;8.10;3.67;;;;;;;1.66;100.00;99505.97;5078703;28;20281;-59
2023/03/05 08:07:22;;;;;;;7.20;3.45;;;;;;;1.65;100.00;99494.56;5083585;28;20453;-59
2023/03/05 08:09:47;;;;;;;6.53;3.42;;;;;;;1.80;100.00;99491.97;5086653;28;20024;-59
2023/03/05 08:12:13;;;;;;;9.85;4.55;;;;;;;1.78;100.00;99501.06;5047970;28;20042;-59
2023/03/05 08:14:38;;;;;;;13.15;5.18;;;;;;;1.61;100.00;99489.81;5080797;28;20027;-59
2023/03/05 08:17:04;;;;;;;14.88;9.80;;;;;;;1.61;100.00;99487.19;5073536;28;20044;-59
2023/03/05 08:19:29;;;;;;;23.92;13.20;;;;;;;1.56;100.00;99482.41;5075450;28;20021;-59
2023/03/05 08:21:55;;;;;;;17.35;8.85;;;;;;;1.64;100.00;99481.53;5083419;28;20513;-59
2023/03/05 08:24:22;;;;;;;9.20;4.43;;;;;;;1.71;100.00;99482.47;5080025;28;20456;-59
2023/03/05 08:26:47;;;;;;;9.52;4.90;;;;;;;1.68;100.00;99475.72;5077001;28;20027;-59
2023/03/05 08:29:12;;;;;;;10.40;4.95;;;;;;;1.68;100.00;99472.25;5076855;28;20016;-59
2023/03/05 08:31:38;;;;;;;13.68;6.60;;;;;;;1.57;100.00;99465.56;5073708;28;20053;-60
2023/03/05 08:34:04;;;;;;;9.90;4.95;;;;;;;1.68;100.00;99465.16;5059244;28;20023;-59
2023/03/05 08:36:29;;;;;;;8.45;4.10;;;;;;;1.69;100.00;99461.50;5078761;28;20024;-58
2023/03/05 08:38:55;;;;;;;12.70;4.13;;;;;;;1.71;100.00;99458.69;5074045;28;20031;-60
2023/03/05 08:41:20;;;;;;;8.40;4.28;;;;;;;1.69;100.00;99464.13;5079071;28;20036;-58
2023/03/05 08:43:45;;;;;;;7.80;3.80;;;;;;;1.66;100.00;99461.03;5073009;28;20076;-58
2023/03/05 08:46:12;;;;;;;6.55;3.47;;;;;;;1.75;100.00;99451.19;5083158;28;20039;-61
2023/03/05 08:48:37;;;;;;;11.10;3.75;;;;;;;1.66;100.00;99455.75;5075294;28;20028;-60
2023/03/05 08:51:07;;;;;;;7.55;3.42;;;;;;;1.69;100.00;99450.09;5080036;28;20070;-61
2023/03/05 08:53:32;;;;;;;6.63;3.05;;;;;;;1.78;100.00;99442.94;5078398;28;20069;-58
2023/03/05 08:55:58;;;;;;;8.07;5.15;;;;;;;1.80;99.02;99447.03;5079745;28;20044;-58
2023/03/05 08:58:24;;;;;;;5.38;3.47;;;;;;;1.96;98.92;99446.03;5072027;28;20040;-59
2023/03/05 09:00:49;;;;;;;10.10;5.65;;;;;;;2.04;97.76;99443.31;5076372;28;20425;-58
2023/03/05 09:03:15;;;;;;;11.32;4.95;;;;;;;2.04;96.80;99445.13;5088516;28;20029;-58
2023/03/05 09:05:40;;;;;;;8.27;3.50;;;;;;;2.07;96.55;99439.47;5079464;28;20127;-59
2023/03/05 09:08:05;;;;;;;10.45;3.30;;;;;;;2.31;97.68;99447.13;5077327;28;20096;-58
2023/03/05 09:10:31;;;;;;;8.68;2.92;;;;;;;2.62;96.78;99446.13;5075462;28;20031;-60
2023/03/05 09:12:56;;;;;;;6.85;2.65;;;;;;;2.55;95.24;99445.22;5078946;28;20051;-59
2023/03/05 09:15:22;;;;;;;10.52;2.95;;;;;;;2.65;95.16;99443.09;5078996;28;20024;-61
2023/03/05 09:17:47;;;;;;;6.80;2.75;;;;;;;2.60;94.38;99440.19;5074465;28;20382;-60
2023/03/05 09:20:13;;;;;;;7.00;4.28;;;;;;;2.56;95.25;99433.59;5083065;28;20409;-59
2023/03/05 09:22:39;;;;;;;6.00;2.90;;;;;;;2.49;93.41;99432.69;5071182;28;20497;-59
2023/03/05 09:25:05;;;;;;;8.60;4.00;;;;;;;2.62;94.06;99438.19;5085088;28;20104;-59
2023/03/05 09:27:34;;;;;;;6.20;2.88;;;;;;;2.84;93.84;99435.53;5079810;28;20028;-59
2023/03/05 09:29:59;;;;;;;12.25;4.47;;;;;;;2.90;92.89;99434.81;5079710;28;20047;-59
2023/03/05 09:32:25;;;;;;;11.30;3.95;;;;;;;2.82;92.61;99430.44;5071318;28;20040;-59
2023/03/05 09:34:50;;;;;;;6.55;3.25;;;;;;;2.93;92.46;99429.13;5074555;28;20032;-59
2023/03/05 09:37:15;;;;;;;8.35;4.03;;;;;;;2.92;91.94;99430.97;5076891;28;20445;-59
2023/03/05 09:39:41;;;;;;;11.90;6.45;;;;;;;3.02;91.11;99422.69;5083332;28;20020;-59
2023/03/05 09:42:12;;;;;;;7.95;3.65;;;;;;;3.20;91.90;99420.44;5075299;28;20466;-59
2023/03/05 09:44:59;;;;;;;6.70;3.65;;;;;;;3.27;89.44;99417.03;5070277;28;20495;-59
2023/03/05 09:47:49;;;;;;;13.57;6.88;;;;;;;3.38;88.45;99411.22;5079346;28;20020;-59
2023/03/05 09:50:34;;;;;;;13.65;6.50;;;;;;;3.43;88.12;99403.50;5078082;28;20059;-59
2023/03/05 09:53:04;;;;;;;8.55;3.90;;;;;;;3.62;87.31;99400.19;5075741;28;20037;-59
2023/03/05 09:55:39;;;;;;;14.13;5.65;;;;;;;4.01;85.30;99390.84;5069941;28;20038;-59
2023/03/05 09:58:09;;;;;;;5.97;2.97;;;;;;;5.34;80.88;99395.72;5050389;28;20608;-59
2023/03/05 10:00:38;;;;;;;8.43;3.22;;;;;;;5.76;78.56;99393.66;5078825;28;20058;-59
2023/03/05 10:03:06;;;;;;;8.93;3.25;;;;;;;5.38;76.92;99392.44;5068094;28;20036;-59
2023/03/05 10:05:52;;;;;;;7.55;3.67;;;;;;;4.94;77.05;99379.72;5067304;28;20036;-59
2023/03/05 10:08:20;;;;;;;7.82;3.70;;;;;;;4.82;78.05;99387.50;5059426;28;20028;-59
2023/03/05 10:10:50;;;;;;;6.38;3.50;;;;;;;4.85;78.03;99380.97;5067646;28;20470;-60
2023/03/05 10:13:25;;;;;;;7.53;4.05;;;;;;;4.68;77.68;99377.84;5073906;28;20058;-60
2023/03/05 10:16:03;;;;;;;11.07;5.40;;;;;;;4.80;77.81;99370.13;5064262;28;20435;-60
2023/03/05 10:18:35;;;;;;;19.10;12.15;;;;;;;4.85;77.39;99376.47;5083665;28;20023;-60
2023/03/05 10:21:07;;;;;;;13.40;7.32;;;;;;;4.85;76.32;99371.16;5086343;28;20078;-60
2023/03/05 10:23:59;;;;;;;19.00;11.98;;;;;;;5.03;75.39;99378.53;5050196;28;20032;-60
2023/03/05 10:26:46;;;;;;;29.48;17.23;;;;;;;4.72;75.98;99371.13;5055078;28;20036;-59
2023/03/05 10:29:23;;;;;;;24.45;13.15;;;;;;;4.74;75.47;99361.09;5064266;28;20029;-59
2023/03/05 10:32:21;;;;;;;26.13;16.00;;;;;;;4.72;75.50;99358.66;5077426;28;20040;-60
2023/03/05 10:35:14;;;;;;;10.90;5.35;;;;;;;4.61;76.32;99351.28;5060987;28;20071;-60
2023/03/05 10:38:03;;;;;;;11.00;4.43;;;;;;;4.08;77.69;99346.59;5080044;28;20093;-60
2023/03/05 10:40:39;;;;;;;15.13;7.40;;;;;;;4.41;77.04;99337.94;5078780;28;20047;-60
2023/03/05 10:43:23;;;;;;;17.35;10.30;;;;;;;4.74;74.24;99342.50;5084689;28;20344;-60
2023/03/05 10:45:52;;;;;;;30.98;18.65;;;;;;;4.99;72.59;99342.75;5061786;28;20336;-60
2023/03/05 10:48:46;;;;;;;11.60;5.87;;;;;;;5.14;69.71;99332.78;5077638;28;20027;-60
2023/03/05 10:51:12;;;;;;;9.77;5.22;;;;;;;5.17;67.32;99336.84;5071669;28;20449;-60
2023/03/05 10:53:55;;;;;;;13.82;6.82;;;;;;;5.37;67.13;99332.34;5060565;28;20371;-60
2023/03/05 10:56:22;;;;;;;25.40;16.35;;;;;;;5.32;66.71;99339.31;5066704;28;20031;-60
2023/03/05 10:58:48;;;;;;;20.25;8.32;;;;;;;5.36;67.03;99330.69;5079829;28;20017;-60
2023/03/05 11:01:14;;;;;;;10.48;4.28;;;;;;;5.37;66.71;99329.69;5077381;28;20020;-60
2023/03/05 11:04:07;;;;;;;6.30;3.13;;;;;;;5.30;65.44;99323.56;5082868;28;20489;-60
2023/03/05 11:06:35;;;;;;;5.30;2.88;;;;;;;5.27;66.36;99325.81;5076567;28;20032;-60
2023/03/05 11:09:28;;;;;;;9.25;3.00;;;;;;;5.22;68.99;99318.47;5074130;28;20040;-60
2023/03/05 11:12:04;;;;;;;8.00;3.45;;;;;;;5.31;68.45;99319.88;5073715;28;20368;-60
2023/03/05 11:14:32;;;;;;;6.75;3.50;;;;;;;5.15;65.68;99312.31;5073790;28;20660;-60
2023/03/05 11:16:58;;;;;;;13.38;9.10;;;;;;;5.18;66.12;99311.91;5074965;28;20029;-60
2023/03/05 11:19:33;;;;;;;11.15;5.07;;;;;;;5.44;65.77;99305.72;5075987;28;20027;-60
2023/03/05 11:22:15;;;;;;;6.93;3.40;;;;;;;5.44;63.18;99299.59;5072900;28;20086;-60
2023/03/05 11:24:41;;;;;;;21.52;13.20;;;;;;;6.02;63.65;99307.69;5073244;28;20024;-60
2023/03/05 11:27:33;;;;;;;14.25;8.32;;;;;;;7.01;60.52;99310.78;5079335;28;20045;-59
2023/03/05 11:29:59;;;;;;;29.13;15.35;;;;;;;7.27;58.46;99299.09;5061830;28;20036;-59
2023/03/05 11:32:26;;;;;;;14.43;7.15;;;;;;;7.38;57.94;99301.03;5078403;28;20226;-59
2023/03/05 11:34:53;;;;;;;15.90;8.65;;;;;;;6.99;58.06;99297.69;5089071;28;21094;-59